createdAt,value
2023-02-11T00:00:17.615Z,25.08
2023-02-11T00:02:47.746Z,25.15
2023-02-11T00:05:15.065Z,24.63
2023-02-11T00:07:42.042Z,24.55
2023-02-11T00:10:09.467Z,23.80
2023-02-11T00:12:38.153Z,25.08
2023-02-11T00:15:07.780Z,25.75
2023-02-11T00:17:34.637Z,24.58
2023-02-11T00:20:01.565Z,24.73
2023-02-11T00:22:28.639Z,25.73
2023-02-11T00:24:57.068Z,24.17
2023-02-11T00:27:24.040Z,24.02
2023-02-11T00:29:51.628Z,24.50
2023-02-11T00:32:18.421Z,24.77
2023-02-11T00:34:45.280Z,23.55
2023-02-11T00:37:13.516Z,24.33
2023-02-11T00:39:42.087Z,22.83
2023-02-11T00:42:17.182Z,24.83
2023-02-11T00:44:45.462Z,23.70
2023-02-11T00:47:12.414Z,23.13
2023-02-11T00:49:40.389Z,23.80
2023-02-11T00:52:07.455Z,23.48
2023-02-11T00:54:34.655Z,24.63
2023-02-11T00:57:01.609Z,24.23
2023-02-11T00:59:28.635Z,23.70
2023-02-11T01:01:55.599Z,24.08
2023-02-11T01:04:22.884Z,23.13
2023-02-11T01:06:52.262Z,23.05
2023-02-11T01:09:21.118Z,23.35
2023-02-11T01:11:48.303Z,23.17
2023-02-11T01:14:15.324Z,21.93
2023-02-11T01:16:42.849Z,23.40
2023-02-11T01:19:09.858Z,23.63
2023-02-11T01:21:36.857Z,23.13
2023-02-11T01:24:03.844Z,22.17
2023-02-11T01:26:30.587Z,22.63
2023-02-11T01:29:00.788Z,23.20
2023-02-11T01:31:28.210Z,22.90
2023-02-11T01:33:55.040Z,24.50
2023-02-11T01:36:22.116Z,23.55
2023-02-11T01:38:49.897Z,23.30
2023-02-11T01:41:20.387Z,22.23
2023-02-11T01:43:49.535Z,23.60
2023-02-11T01:46:36.414Z,23.95
2023-02-11T01:49:11.252Z,24.07
2023-02-11T01:51:47.275Z,23.42
2023-02-11T01:54:39.391Z,23.25
2023-02-11T01:57:22.734Z,23.48
2023-02-11T01:59:49.562Z,22.90
2023-02-11T02:02:19.662Z,22.42
2023-02-11T02:05:10.351Z,24.58
2023-02-11T02:07:45.951Z,23.27
2023-02-11T02:10:19.023Z,23.05
2023-02-11T02:12:46.591Z,23.92
2023-02-11T02:15:22.653Z,24.00
2023-02-11T02:18:07.569Z,22.75
2023-02-11T02:20:55.894Z,23.15
2023-02-11T02:23:51.041Z,24.23
2023-02-11T02:26:29.871Z,23.20
2023-02-11T02:29:23.423Z,23.58
2023-02-11T02:31:50.411Z,24.90
2023-02-11T02:34:32.063Z,25.25
2023-02-11T02:37:15.149Z,24.88
2023-02-11T02:39:43.320Z,25.50
2023-02-11T02:44:37.209Z,24.63
2023-02-11T02:47:04.234Z,24.30
2023-02-11T02:49:31.110Z,26.33
2023-02-11T02:52:16.078Z,24.33
2023-02-11T02:54:48.855Z,25.65
2023-02-11T02:57:38.934Z,25.02
2023-02-11T03:00:08.652Z,25.10
2023-02-11T03:02:42.145Z,26.10
2023-02-11T03:05:41.178Z,26.25
2023-02-11T03:08:37.071Z,25.33
2023-02-11T03:11:07.610Z,26.30
2023-02-11T03:13:48.781Z,25.52
2023-02-11T03:16:26.300Z,26.70
2023-02-11T03:19:01.192Z,26.10
2023-02-11T03:21:30.718Z,26.65
2023-02-11T03:24:03.020Z,26.33
2023-02-11T03:26:44.311Z,26.20
2023-02-11T03:29:30.971Z,26.52
2023-02-11T03:32:06.576Z,27.90
2023-02-11T03:34:54.725Z,27.15
2023-02-11T03:37:34.724Z,28.17
2023-02-11T03:40:09.563Z,27.17
2023-02-11T03:42:48.763Z,28.45
2023-02-11T03:45:19.133Z,27.13
2023-02-11T03:48:11.697Z,26.25
2023-02-11T03:50:40.362Z,27.35
2023-02-11T03:53:08.730Z,27.33
2023-02-11T03:55:38.768Z,28.27
2023-02-11T03:58:06.255Z,28.58
2023-02-11T04:00:39.957Z,28.13
2023-02-11T04:03:08.611Z,29.02
2023-02-11T04:05:36.459Z,28.08
2023-02-11T04:08:04.343Z,27.67
2023-02-11T04:10:31.354Z,28.95
2023-02-11T04:12:58.161Z,29.50
2023-02-11T04:15:24.952Z,28.50
2023-02-11T04:17:51.934Z,28.75
2023-02-11T04:20:19.300Z,28.42
2023-02-11T04:22:46.321Z,30.27
2023-02-11T04:25:13.156Z,30.30
2023-02-11T04:27:39.983Z,29.73
2023-02-11T04:30:07.920Z,29.52
2023-02-11T04:32:34.877Z,30.48
2023-02-11T04:35:02.782Z,29.30
2023-02-11T04:37:29.678Z,30.33
2023-02-11T04:39:56.483Z,30.08
2023-02-11T04:42:23.499Z,31.00
2023-02-11T04:44:50.469Z,29.73
2023-02-11T04:47:17.365Z,28.80
2023-02-11T04:49:44.350Z,30.63
2023-02-11T04:52:11.363Z,31.33
2023-02-11T04:54:38.256Z,30.50
2023-02-11T04:57:05.403Z,29.80
2023-02-11T04:59:32.223Z,31.08
2023-02-11T05:01:59.182Z,31.98
2023-02-11T05:04:25.926Z,29.52
2023-02-11T05:06:52.860Z,31.42
2023-02-11T05:09:19.613Z,30.13
2023-02-11T05:11:46.577Z,32.17
2023-02-11T05:14:13.538Z,32.70
2023-02-11T05:16:40.683Z,32.40
2023-02-11T05:19:07.578Z,31.98
2023-02-11T05:21:34.633Z,31.83
2023-02-11T05:24:01.594Z,32.70
2023-02-11T05:26:28.481Z,30.42
2023-02-11T05:28:55.799Z,33.58
2023-02-11T05:31:22.721Z,33.90
2023-02-11T05:33:49.558Z,33.70
2023-02-11T05:36:16.841Z,33.83
2023-02-11T05:38:43.818Z,33.77
2023-02-11T05:41:11.878Z,34.38
2023-02-11T05:43:39.297Z,34.33
2023-02-11T05:46:06.538Z,34.70
2023-02-11T05:48:33.656Z,34.87
2023-02-11T05:51:00.578Z,35.90
2023-02-11T05:53:27.476Z,33.60
2023-02-11T05:55:54.938Z,34.38
2023-02-11T05:58:21.784Z,34.72
2023-02-11T06:00:48.629Z,34.60
2023-02-11T06:03:15.559Z,35.55
2023-02-11T06:05:45.812Z,36.88
2023-02-11T06:08:12.823Z,36.08
2023-02-11T06:10:42.336Z,36.63
2023-02-11T06:13:09.388Z,36.40
2023-02-11T06:15:36.256Z,37.63
2023-02-11T06:18:03.496Z,37.85
2023-02-11T06:20:30.392Z,37.33
2023-02-11T06:22:57.270Z,38.17
2023-02-11T06:25:24.160Z,37.55
2023-02-11T06:27:50.912Z,37.20
2023-02-11T06:30:17.799Z,38.42
2023-02-11T06:32:45.922Z,37.28
2023-02-11T06:35:14.552Z,37.97
2023-02-11T06:37:42.603Z,39.42
2023-02-11T06:40:10.921Z,37.42
2023-02-11T06:42:42.008Z,39.13
2023-02-11T06:45:11.332Z,40.40
2023-02-11T06:47:50.616Z,40.90
2023-02-11T06:50:18.122Z,40.50
2023-02-11T06:52:45.088Z,40.95
2023-02-11T06:55:12.045Z,40.88
2023-02-11T06:57:38.912Z,41.30
2023-02-11T07:00:06.377Z,43.00
2023-02-11T07:02:33.270Z,42.85
2023-02-11T07:05:00.136Z,40.55
2023-02-11T07:07:27.609Z,41.78
2023-02-11T07:09:54.368Z,38.72
2023-02-11T07:12:21.172Z,39.40
2023-02-11T07:14:47.951Z,39.42
2023-02-11T07:17:15.004Z,40.17
2023-02-11T07:19:42.017Z,39.78
2023-02-11T07:22:09.088Z,39.42
2023-02-11T07:24:36.000Z,41.38
2023-02-11T07:27:02.882Z,38.88
2023-02-11T07:29:29.901Z,37.28
2023-02-11T07:31:56.767Z,37.35
2023-02-11T07:34:23.621Z,42.45
2023-02-11T07:36:50.390Z,37.50
2023-02-11T07:39:17.373Z,37.55
2023-02-11T07:41:47.703Z,38.03
2023-02-11T07:44:14.777Z,36.05
2023-02-11T07:46:45.550Z,38.42
2023-02-11T07:49:12.892Z,36.05
2023-02-11T07:51:39.841Z,35.90
2023-02-11T07:54:07.011Z,36.63
2023-02-11T07:56:34.024Z,35.05
2023-02-11T07:59:03.431Z,35.85
2023-02-11T08:01:30.695Z,35.97
2023-02-11T08:03:59.475Z,34.50
2023-02-11T08:06:29.063Z,32.90
2023-02-11T08:08:56.030Z,33.28
2023-02-11T08:11:27.402Z,32.05
2023-02-11T08:13:56.449Z,32.53
2023-02-11T08:16:29.606Z,31.60
2023-02-11T08:18:58.364Z,32.47
2023-02-11T08:21:26.000Z,34.28
2023-02-11T08:23:53.371Z,32.03
2023-02-11T08:26:23.742Z,32.33
2023-02-11T08:28:52.247Z,31.40
2023-02-11T08:34:06.411Z,30.85
2023-02-11T08:36:36.821Z,30.98
2023-02-11T08:39:19.350Z,31.23
2023-02-11T08:41:49.216Z,30.90
2023-02-11T08:44:17.321Z,32.70
2023-02-11T08:49:10.861Z,31.23
2023-02-11T08:51:37.706Z,31.55
2023-02-11T08:54:04.548Z,31.38
2023-02-11T08:56:33.086Z,32.88
2023-02-11T08:59:00.095Z,31.58
2023-02-11T09:01:29.939Z,34.10
2023-02-11T09:03:58.357Z,33.28
2023-02-11T09:06:26.015Z,33.13
2023-02-11T09:08:55.174Z,32.75
2023-02-11T09:11:27.013Z,32.55
2023-02-11T09:13:54.579Z,32.22
2023-02-11T09:16:27.692Z,32.75
2023-02-11T09:18:56.947Z,32.65
2023-02-11T09:21:23.832Z,31.55
2023-02-11T09:23:50.945Z,32.35
2023-02-11T09:26:19.127Z,32.60
2023-02-11T09:31:16.094Z,26.33
2023-02-11T09:33:49.608Z,29.45
2023-02-11T09:36:25.420Z,30.13
2023-02-11T09:38:53.398Z,29.92
2023-02-11T09:41:23.204Z,29.95
2023-02-11T09:44:02.899Z,30.08
2023-02-11T09:46:35.491Z,29.95
2023-02-11T09:49:04.776Z,28.52
2023-02-11T09:51:57.036Z,28.00
2023-02-11T09:54:31.460Z,29.55
2023-02-11T09:56:58.303Z,29.48
2023-02-11T09:59:25.176Z,29.98
2023-02-11T10:02:17.248Z,28.55
2023-02-11T10:05:17.042Z,28.80
2023-02-11T10:08:01.143Z,27.92
2023-02-11T10:10:45.088Z,29.35
2023-02-11T10:13:23.845Z,28.02
2023-02-11T10:16:14.360Z,28.55
2023-02-11T10:19:08.281Z,26.67
2023-02-11T10:21:46.541Z,27.25
2023-02-11T10:24:15.716Z,27.73
2023-02-11T10:26:44.410Z,27.48
2023-02-11T10:29:33.655Z,26.35
2023-02-11T10:32:03.177Z,31.10
2023-02-11T10:34:30.277Z,28.08
2023-02-11T10:36:57.247Z,28.65
2023-02-11T10:39:27.204Z,29.70
2023-02-11T10:42:02.538Z,29.15
2023-02-11T10:44:38.546Z,29.98
2023-02-11T10:47:21.931Z,29.70
2023-02-11T10:49:49.063Z,28.52
2023-02-11T10:52:19.473Z,28.30
2023-02-11T10:55:14.312Z,29.98
2023-02-11T10:57:50.836Z,29.35
2023-02-11T11:00:37.852Z,29.38
2023-02-11T11:03:19.950Z,29.53
2023-02-11T11:06:09.642Z,28.98
2023-02-11T11:08:50.913Z,29.63
2023-02-11T11:11:20.445Z,29.30
2023-02-11T11:13:53.549Z,28.70
2023-02-11T11:16:30.404Z,29.92
2023-02-11T11:19:21.838Z,28.73
2023-02-11T11:21:53.709Z,29.15
2023-02-11T11:24:25.542Z,29.98
2023-02-11T11:26:56.928Z,29.27
2023-02-11T11:29:39.124Z,31.08
2023-02-11T11:32:20.801Z,28.15
2023-02-11T11:34:55.510Z,30.23
2023-02-11T11:37:34.942Z,34.38
2023-02-11T11:40:11.029Z,30.27
2023-02-11T11:42:39.403Z,30.88
2023-02-11T11:45:15.598Z,28.83
2023-02-11T11:47:51.783Z,29.92
2023-02-11T11:50:41.764Z,28.55
2023-02-11T11:53:37.192Z,29.88
2023-02-11T11:56:11.765Z,30.63
2023-02-11T11:58:38.677Z,29.33
2023-02-11T12:01:19.640Z,28.52
2023-02-11T12:04:08.407Z,27.27
2023-02-11T12:06:39.114Z,26.73
2023-02-11T12:09:30.889Z,27.80
2023-02-11T12:12:03.625Z,28.33
2023-02-11T12:14:45.137Z,27.45
2023-02-11T12:17:33.602Z,27.75
2023-02-11T12:20:20.129Z,29.52
2023-02-11T12:23:02.384Z,28.02
2023-02-11T12:26:00.713Z,27.00
2023-02-11T12:29:04.973Z,25.67
2023-02-11T12:31:31.905Z,25.90
2023-02-11T12:34:27.595Z,25.58
2023-02-11T12:37:08.119Z,23.55
2023-02-11T12:39:40.950Z,24.38
2023-02-11T12:42:53.963Z,22.70
2023-02-11T12:45:24.640Z,22.33
2023-02-11T12:48:10.570Z,23.30
2023-02-11T12:50:40.190Z,23.95
2023-02-11T12:53:21.545Z,23.63
2023-02-11T12:55:55.149Z,23.95
2023-02-11T12:58:35.666Z,25.05
2023-02-11T13:04:04.930Z,22.48
2023-02-11T13:06:45.491Z,22.42
2023-02-11T13:09:18.981Z,18.00
2023-02-11T13:11:53.525Z,21.52
2023-02-11T13:14:37.642Z,21.73
2023-02-11T13:17:16.341Z,20.92
2023-02-11T13:20:13.589Z,20.90
2023-02-11T13:22:48.882Z,19.92
2023-02-11T13:25:47.179Z,20.08
2023-02-11T13:28:25.855Z,20.33
2023-02-11T13:31:04.477Z,20.05
2023-02-11T13:33:34.011Z,20.35
2023-02-11T13:36:02.652Z,19.75
2023-02-11T13:38:32.206Z,19.85
2023-02-11T13:41:33.866Z,19.92
2023-02-11T13:44:08.918Z,18.92
2023-02-11T13:46:59.516Z,17.83
2023-02-11T13:49:35.246Z,19.05
2023-02-11T13:52:05.813Z,18.08
2023-02-11T13:54:46.625Z,18.20
2023-02-11T13:57:19.465Z,17.65
2023-02-11T13:59:49.681Z,17.58
2023-02-11T14:02:53.373Z,20.98
2023-02-11T14:05:41.674Z,19.02
2023-02-11T14:08:30.176Z,19.73
2023-02-11T14:11:02.656Z,17.83
2023-02-11T14:13:34.357Z,18.80
2023-02-11T14:16:13.642Z,21.10
2023-02-11T14:18:49.728Z,21.10
2023-02-11T14:21:29.451Z,23.92
2023-02-11T14:24:19.051Z,23.33
2023-02-11T14:27:04.964Z,28.83
2023-02-11T14:29:31.796Z,33.67
2023-02-11T14:32:06.121Z,18.98
2023-02-11T14:34:51.505Z,17.48
2023-02-11T14:37:32.536Z,16.75
2023-02-11T14:40:29.617Z,16.98
2023-02-11T14:43:01.797Z,15.73
2023-02-11T14:45:30.986Z,15.77
2023-02-11T14:48:12.265Z,14.18
2023-02-11T14:50:47.956Z,16.00
2023-02-11T14:53:18.100Z,14.52
2023-02-11T14:55:48.231Z,15.32
2023-02-11T14:58:18.031Z,14.48
2023-02-11T15:00:49.695Z,13.88
2023-02-11T15:03:36.864Z,16.88
2023-02-11T15:06:36.056Z,17.25
2023-02-11T15:09:07.625Z,18.45
2023-02-11T15:11:39.811Z,15.65
2023-02-11T15:14:10.528Z,15.07
2023-02-11T15:16:44.287Z,17.80
2023-02-11T15:19:25.724Z,14.18
2023-02-11T15:21:53.458Z,11.98
2023-02-11T15:24:25.549Z,13.38
2023-02-11T15:27:03.984Z,12.40
2023-02-11T15:29:39.936Z,11.82
2023-02-11T15:32:19.919Z,13.27
2023-02-11T15:34:48.312Z,13.75
2023-02-11T15:37:27.776Z,12.10
2023-02-11T15:39:55.341Z,13.20
2023-02-11T15:42:27.693Z,12.82
2023-02-11T15:45:12.052Z,13.23
2023-02-11T15:47:46.617Z,13.50
2023-02-11T15:50:36.910Z,13.52
2023-02-11T15:53:24.927Z,13.95
2023-02-11T15:55:57.714Z,14.75
2023-02-11T15:58:24.837Z,14.23
2023-02-11T16:00:59.853Z,13.45
2023-02-11T16:03:32.425Z,14.52
2023-02-11T16:06:18.921Z,15.27
2023-02-11T16:09:11.125Z,14.25
2023-02-11T16:11:58.198Z,15.38
2023-02-11T16:14:31.149Z,15.32
2023-02-11T16:17:07.072Z,15.55
2023-02-11T16:19:35.574Z,15.80
2023-02-11T16:22:09.778Z,15.18
2023-02-11T16:24:38.607Z,15.45
2023-02-11T16:27:18.544Z,16.38
2023-02-11T16:29:48.246Z,15.75
2023-02-11T16:32:24.245Z,15.57
2023-02-11T16:34:52.763Z,16.30
2023-02-11T16:37:19.758Z,15.60
2023-02-11T16:39:47.023Z,16.75
2023-02-11T16:42:13.947Z,14.60
2023-02-11T16:44:41.025Z,16.38
2023-02-11T16:47:15.010Z,15.80
2023-02-11T16:49:42.821Z,15.18
2023-02-11T16:52:14.601Z,15.45
2023-02-11T16:54:41.758Z,16.30
2023-02-11T16:57:15.667Z,15.75
2023-02-11T16:59:43.201Z,14.68
2023-02-11T17:02:24.180Z,14.18
2023-02-11T17:04:53.621Z,13.30
2023-02-11T17:07:20.535Z,14.32
2023-02-11T17:09:47.497Z,13.52
2023-02-11T17:12:14.335Z,13.90
2023-02-11T17:14:41.348Z,13.32
2023-02-11T17:17:10.185Z,13.50
2023-02-11T17:19:37.275Z,13.82
2023-02-11T17:22:05.048Z,12.70
2023-02-11T17:24:32.388Z,13.90
2023-02-11T17:26:59.638Z,12.97
2023-02-11T17:29:27.090Z,11.73
2023-02-11T17:31:54.387Z,12.07
2023-02-11T17:34:22.548Z,12.68
2023-02-11T17:36:49.904Z,12.73
2023-02-11T17:39:17.395Z,11.90
2023-02-11T17:41:44.801Z,12.45
2023-02-11T17:44:16.353Z,12.38
2023-02-11T17:46:43.931Z,12.82
2023-02-11T17:49:11.991Z,12.30
2023-02-11T17:51:40.799Z,12.55
2023-02-11T17:54:13.723Z,12.82
2023-02-11T17:56:41.125Z,11.85
2023-02-11T17:59:10.873Z,12.33
2023-02-11T18:01:39.616Z,12.75
2023-02-11T18:04:07.755Z,12.50
2023-02-11T18:06:35.104Z,13.77
2023-02-11T18:09:04.211Z,12.57
2023-02-11T18:11:33.127Z,13.15
2023-02-11T18:14:01.028Z,11.70
2023-02-11T18:16:29.929Z,11.85
2023-02-11T18:18:58.559Z,11.88
2023-02-11T18:21:26.372Z,11.45
2023-02-11T18:23:53.654Z,10.70
2023-02-11T18:26:28.191Z,10.60
2023-02-11T18:28:58.144Z,10.45
2023-02-11T18:31:26.469Z,10.65
2023-02-11T18:33:53.936Z,9.93
2023-02-11T18:36:21.886Z,10.60
2023-02-11T18:38:49.384Z,10.45
2023-02-11T18:41:16.495Z,9.95
2023-02-11T18:43:45.158Z,9.93
2023-02-11T18:46:14.996Z,10.18
2023-02-11T18:48:42.095Z,10.23
2023-02-11T18:51:15.066Z,10.52
2023-02-11T18:53:46.066Z,9.82
2023-02-11T18:56:19.344Z,10.15
2023-02-11T18:58:46.829Z,9.48
2023-02-11T19:01:17.048Z,9.80
2023-02-11T19:03:44.764Z,10.02
2023-02-11T19:06:21.334Z,9.45
2023-02-11T19:08:51.028Z,9.70
2023-02-11T19:11:19.925Z,10.27
2023-02-11T19:13:51.749Z,9.80
2023-02-11T19:16:19.895Z,10.43
2023-02-11T19:18:47.120Z,9.23
2023-02-11T19:21:14.660Z,11.15
2023-02-11T19:23:44.906Z,9.65
2023-02-11T19:26:11.873Z,10.63
2023-02-11T19:28:39.216Z,10.23
2023-02-11T19:31:08.777Z,10.60
2023-02-11T19:33:36.253Z,10.65
2023-02-11T19:36:07.417Z,10.07
2023-02-11T19:38:35.470Z,10.50
2023-02-11T19:41:02.562Z,10.75
2023-02-11T19:43:30.258Z,10.50
2023-02-11T19:45:57.653Z,9.82
2023-02-11T19:48:25.487Z,10.18
2023-02-11T19:50:52.700Z,10.77
2023-02-11T19:53:19.803Z,10.33
2023-02-11T19:55:47.093Z,10.07
2023-02-11T19:58:18.842Z,9.57
2023-02-11T20:00:45.990Z,10.27
2023-02-11T20:03:13.048Z,8.73
2023-02-11T20:05:43.449Z,9.43
2023-02-11T20:16:46.434Z,9.00
2023-02-11T20:19:21.910Z,9.65
2023-02-11T20:21:53.355Z,9.13
2023-02-11T20:24:21.232Z,8.88
2023-02-11T20:26:49.001Z,9.80
2023-02-11T20:29:19.143Z,9.00
2023-02-11T20:31:46.724Z,9.48
2023-02-11T20:34:14.376Z,8.82
2023-02-11T20:36:41.646Z,9.27
2023-02-11T20:39:10.410Z,9.20
2023-02-11T20:41:41.022Z,9.05
2023-02-11T20:44:10.364Z,9.82
2023-02-11T20:46:40.065Z,9.20
2023-02-11T20:49:09.038Z,9.95
2023-02-11T20:51:37.445Z,8.88
2023-02-11T20:54:06.205Z,9.20
2023-02-11T20:56:38.470Z,9.50
2023-02-11T20:59:06.712Z,8.68
2023-02-11T21:04:08.432Z,8.93
2023-02-11T21:06:42.040Z,8.18
2023-02-11T21:09:12.186Z,8.77
2023-02-11T21:11:40.913Z,8.48
2023-02-11T21:14:08.499Z,8.02
2023-02-11T21:16:36.073Z,7.85
2023-02-11T21:19:04.662Z,8.18
2023-02-11T21:21:34.338Z,9.00
2023-02-11T21:24:01.761Z,8.30
2023-02-11T21:26:29.002Z,7.70
2023-02-11T21:28:56.257Z,7.88
2023-02-11T21:31:27.142Z,8.50
2023-02-11T21:33:55.335Z,8.32
2023-02-11T21:36:23.536Z,7.65
2023-02-11T21:41:22.385Z,7.93
2023-02-11T21:43:50.258Z,7.68
2023-02-11T21:46:18.671Z,7.88
2023-02-11T21:48:46.254Z,7.75
2023-02-11T21:51:21.989Z,7.75
2023-02-11T21:53:57.023Z,7.47
2023-02-11T21:56:27.972Z,7.38
2023-02-11T21:58:57.410Z,7.38
2023-02-11T22:01:31.527Z,7.38
2023-02-11T22:03:59.077Z,7.05
2023-02-11T22:06:31.229Z,6.75
2023-02-11T22:09:01.522Z,6.97
2023-02-11T22:11:28.981Z,6.88
2023-02-11T22:13:56.454Z,6.60
2023-02-11T22:16:24.768Z,7.43
2023-02-11T22:21:21.753Z,6.20
2023-02-11T22:23:50.101Z,7.07
2023-02-11T22:26:20.921Z,6.50
2023-02-11T22:28:49.345Z,6.90
2023-02-11T22:31:22.721Z,6.45
2023-02-11T22:33:52.579Z,6.88
2023-02-11T22:36:29.649Z,6.53
2023-02-11T22:39:07.724Z,6.22
2023-02-11T22:41:35.748Z,6.55
2023-02-11T22:44:03.857Z,6.40
2023-02-11T22:49:00.831Z,6.47
2023-02-11T22:51:30.131Z,6.78
2023-02-11T22:54:03.441Z,6.25
2023-02-11T22:56:31.674Z,6.35
2023-02-11T23:01:31.181Z,6.20
2023-02-11T23:04:01.442Z,6.03
2023-02-11T23:06:28.669Z,5.95
2023-02-11T23:08:56.185Z,6.18
2023-02-11T23:11:34.049Z,6.05
2023-02-11T23:14:14.435Z,5.40
2023-02-11T23:16:42.274Z,4.97
2023-02-11T23:19:12.370Z,5.97
2023-02-11T23:21:40.797Z,5.70
2023-02-11T23:24:13.848Z,5.20
2023-02-11T23:26:43.362Z,5.63
2023-02-11T23:29:11.487Z,5.00
2023-02-11T23:34:10.830Z,5.00
2023-02-11T23:36:38.926Z,5.38
2023-02-11T23:39:07.113Z,4.63
2023-02-11T23:41:34.816Z,5.05
2023-02-11T23:44:05.486Z,5.43
2023-02-11T23:46:33.255Z,5.18
2023-02-11T23:49:03.492Z,4.82
2023-02-11T23:51:34.476Z,4.90
2023-02-11T23:54:15.138Z,4.80
2023-02-11T23:56:46.772Z,4.63
2023-02-11T23:59:16.991Z,5.18
